sensor_id;sensor_type;location;lat;lon;timestamp;pressure;altitude;pressure_sealevel;temperature;humidity
67099;BME280;54288;53.046;5.668;2023-04-26T00:01:38;101991.50;;;4.28;100.00
67099;BME280;54288;53.046;5.668;2023-04-26T00:04:05;101992.25;;;4.24;100.00
67099;BME280;54288;53.046;5.668;2023-04-26T00:06:32;101979.19;;;4.19;100.00
67099;BME280;54288;53.046;5.668;2023-04-26T00:08:59;101982.63;;;4.18;100.00
67099;BME280;54288;53.046;5.668;2023-04-26T00:11:25;101989.66;;;4.24;100.00
67099;BME280;54288;53.046;5.668;2023-04-26T00:13:51;101985.47;;;4.29;100.00
67099;BME280;54288;53.046;5.668;2023-04-26T00:16:17;101987.28;;;4.33;100.00
67099;BME280;54288;53.046;5.668;2023-04-26T00:18:44;101984.84;;;4.40;100.00
67099;BME280;54288;53.046;5.668;2023-04-26T00:21:11;101979.88;;;4.49;100.00
67099;BME280;54288;53.046;5.668;2023-04-26T00:23:37;101987.88;;;4.58;100.00
67099;BME280;54288;53.046;5.668;2023-04-26T00:26:03;101984.47;;;4.61;100.00
67099;BME280;54288;53.046;5.668;2023-04-26T00:28:29;101980.19;;;4.63;100.00
67099;BME280;54288;53.046;5.668;2023-04-26T00:30:56;101986.38;;;4.69;100.00
67099;BME280;54288;53.046;5.668;2023-04-26T00:33:22;101980.31;;;4.69;100.00
67099;BME280;54288;53.046;5.668;2023-04-26T00:35:48;101982.94;;;4.70;100.00
67099;BME280;54288;53.046;5.668;2023-04-26T00:38:15;101982.16;;;4.74;100.00
67099;BME280;54288;53.046;5.668;2023-04-26T00:40:41;101977.00;;;4.76;100.00
67099;BME280;54288;53.046;5.668;2023-04-26T00:43:07;101981.34;;;4.77;100.00
67099;BME280;54288;53.046;5.668;2023-04-26T00:45:34;101976.19;;;4.78;100.00
67099;BME280;54288;53.046;5.668;2023-04-26T00:48:02;101971.84;;;4.77;100.00
67099;BME280;54288;53.046;5.668;2023-04-26T00:50:30;101987.53;;;4.83;100.00
67099;BME280;54288;53.046;5.668;2023-04-26T00:52:57;101981.53;;;4.86;100.00
67099;BME280;54288;53.046;5.668;2023-04-26T00:55:24;101974.66;;;4.86;100.00
67099;BME280;54288;53.046;5.668;2023-04-26T00:57:52;101974.66;;;4.88;100.00
67099;BME280;54288;53.046;5.668;2023-04-26T01:00:19;101972.16;;;4.92;100.00
67099;BME280;54288;53.046;5.668;2023-04-26T01:02:46;101971.25;;;4.90;100.00
67099;BME280;54288;53.046;5.668;2023-04-26T01:05:12;101966.06;;;4.90;100.00
67099;BME280;54288;53.046;5.668;2023-04-26T01:07:38;101964.28;;;4.88;100.00
67099;BME280;54288;53.046;5.668;2023-04-26T01:10:05;101970.28;;;4.85;100.00
67099;BME280;54288;53.046;5.668;2023-04-26T01:12:31;101960.66;;;4.80;100.00
67099;BME280;54288;53.046;5.668;2023-04-26T01:15:02;101975.34;;;4.79;100.00
67099;BME280;54288;53.046;5.668;2023-04-26T01:17:28;101965.63;;;4.69;100.00
67099;BME280;54288;53.046;5.668;2023-04-26T01:19:55;101976.78;;;4.65;100.00
67099;BME280;54288;53.046;5.668;2023-04-26T01:22:21;101972.28;;;4.57;100.00
67099;BME280;54288;53.046;5.668;2023-04-26T01:24:50;101972.13;;;4.51;100.00
67099;BME280;54288;53.046;5.668;2023-04-26T01:27:16;101965.06;;;4.44;100.00
67099;BME280;54288;53.046;5.668;2023-04-26T01:29:43;101969.28;;;4.40;100.00
67099;BME280;54288;53.046;5.668;2023-04-26T01:32:09;101971.88;;;4.40;100.00
67099;BME280;54288;53.046;5.668;2023-04-26T01:34:35;101970.13;;;4.39;100.00
67099;BME280;54288;53.046;5.668;2023-04-26T01:37:02;101978.03;;;4.44;100.00
67099;BME280;54288;53.046;5.668;2023-04-26T01:39:28;101976.31;;;4.44;100.00
67099;BME280;54288;53.046;5.668;2023-04-26T01:41:56;101978.13;;;4.48;100.00
67099;BME280;54288;53.046;5.668;2023-04-26T01:44:23;101979.88;;;4.49;100.00
67099;BME280;54288;53.046;5.668;2023-04-26T01:46:49;101981.63;;;4.50;100.00
67099;BME280;54288;53.046;5.668;2023-04-26T01:49:15;101982.47;;;4.49;100.00
67099;BME280;54288;53.046;5.668;2023-04-26T01:51:41;101979.88;;;4.49;100.00
67099;BME280;54288;53.046;5.668;2023-04-26T01:54:07;101973.00;;;4.50;100.00
67099;BME280;54288;53.046;5.668;2023-04-26T01:56:33;101973.94;;;4.55;100.00
67099;BME280;54288;53.046;5.668;2023-04-26T01:59:00;101969.59;;;4.54;100.00
67099;BME280;54288;53.046;5.668;2023-04-26T02:01:26;101969.59;;;4.52;100.00
67099;BME280;54288;53.046;5.668;2023-04-26T02:03:52;101965.13;;;4.47;100.00
67099;BME280;54288;53.046;5.668;2023-04-26T02:06:19;101971.13;;;4.44;100.00
67099;BME280;54288;53.046;5.668;2023-04-26T02:08:46;101962.44;;;4.42;100.00
67099;BME280;54288;53.046;5.668;2023-04-26T02:11:13;101973.66;;;4.41;100.00
67099;BME280;54288;53.046;5.668;2023-04-26T02:13:39;101967.59;;;4.41;100.00
67099;BME280;54288;53.046;5.668;2023-04-26T02:16:05;101971.06;;;4.41;100.00
67099;BME280;54288;53.046;5.668;2023-04-26T02:18:32;101962.34;;;4.39;100.00
67099;BME280;54288;53.046;5.668;2023-04-26T02:20:59;101963.97;;;4.34;100.00
67099;BME280;54288;53.046;5.668;2023-04-26T02:23:25;101969.09;;;4.31;100.00
67099;BME280;54288;53.046;5.668;2023-04-26T02:25:51;101970.75;;;4.28;100.00
67099;BME280;54288;53.046;5.668;2023-04-26T02:28:17;101975.81;;;4.23;100.00
67099;BME280;54288;53.046;5.668;2023-04-26T02:30:43;101970.63;;;4.22;100.00
67099;BME280;54288;53.046;5.668;2023-04-26T02:33:09;101975.75;;;4.20;100.00
67099;BME280;54288;53.046;5.668;2023-04-26T02:35:36;101970.63;;;4.23;100.00
67099;BME280;54288;53.046;5.668;2023-04-26T02:38:04;101972.53;;;4.30;100.00
67099;BME280;54288;53.046;5.668;2023-04-26T02:40:44;101970.84;;;4.32;100.00
67099;BME280;54288;53.046;5.668;2023-04-26T05:00:21;101968.63;;;4.49;100.00
67099;BME280;54288;53.046;5.668;2023-04-26T05:03:17;101958.56;;;5.50;100.00
67099;BME280;54288;53.046;5.668;2023-04-26T05:06:33;101958.56;;;7.28;100.00
67099;BME280;54288;53.046;5.668;2023-04-26T05:09:09;101952.00;;;9.01;87.17
67099;BME280;54288;53.046;5.668;2023-04-26T05:11:45;101959.75;;;8.81;80.50
67099;BME280;54288;53.046;5.668;2023-04-26T05:14:14;101969.09;;;7.40;88.10
67099;BME280;54288;53.046;5.668;2023-04-26T05:16:41;101958.56;;;6.57;93.05
67099;BME280;54288;53.046;5.668;2023-04-26T05:19:08;101973.50;;;6.12;97.70
67099;BME280;54288;53.046;5.668;2023-04-26T05:21:34;101976.59;;;5.90;100.00
67099;BME280;54288;53.046;5.668;2023-04-26T05:24:09;101987.47;;;6.20;100.00
67099;BME280;54288;53.046;5.668;2023-04-26T05:26:59;101993.78;;;8.95;90.09
67099;BME280;54288;53.046;5.668;2023-04-26T05:29:41;101984.28;;;10.86;75.89
67099;BME280;54288;53.046;5.668;2023-04-26T05:32:27;101982.91;;;11.86;71.64
67099;BME280;54288;53.046;5.668;2023-04-26T05:35:22;101978.09;;;11.12;71.17
67099;BME280;54288;53.046;5.668;2023-04-26T05:37:50;101978.34;;;10.27;72.75
67099;BME280;54288;53.046;5.668;2023-04-26T05:40:53;101982.69;;;8.02;83.09
67099;BME280;54288;53.046;5.668;2023-04-26T05:43:21;101981.09;;;6.55;87.59
67099;BME280;54288;53.046;5.668;2023-04-26T05:45:55;101988.94;;;6.01;93.57
67099;BME280;54288;53.046;5.668;2023-04-26T06:07:26;101996.53;;;6.44;98.75
67099;BME280;54288;53.046;5.668;2023-04-26T06:09:52;101991.19;;;6.37;96.53
67099;BME280;54288;53.046;5.668;2023-04-26T06:12:18;102006.00;;;6.39;97.44
67099;BME280;54288;53.046;5.668;2023-04-26T06:17:27;101996.41;;;6.35;98.42
67099;BME280;54288;53.046;5.668;2023-04-26T11:04:04;102055.00;;;9.66;79.36
67099;BME280;54288;53.046;5.668;2023-04-26T11:22:14;102071.59;;;9.72;79.54
67099;BME280;54288;53.046;5.668;2023-04-26T11:31:24;102062.88;;;9.79;75.73
67099;BME280;54288;53.046;5.668;2023-04-26T11:40:10;102061.13;;;11.07;70.55
67099;BME280;54288;53.046;5.668;2023-04-26T11:43:13;102057.50;;;11.41;65.99
